Погода Жакутингана 2 недели

Минас-Жерайс, Бразилия

23 июля-05 августа
  • 23июля
    Сегодня
    +10°
    +26°
    Ясно и безоблачно
    ВремяПогодаТемператураВлажностьДавлениеВетер, м/сВероятность осадков
    00:00Ясно и безоблачно+14°C70 %700 мм2.0 м/с5 %
    03:00Ясно и безоблачно+14°C71 %700 мм2.8 м/с5 %
    06:00Ясно и безоблачно+10°C81 %699 мм2.2 м/с5 %
    09:00Ясно и безоблачно+17°C55 %702 мм2.2 м/с5 %
    12:00Ясно и безоблачно+23°C29 %702 мм1.1 м/с5 %
    15:00Ясно и безоблачно+26°C24 %701 мм1.2 м/с5 %
    18:00Ясно и безоблачно+22°C41 %700 мм1.5 м/с5 %
    21:00Ясно и безоблачно+16°C51 %700 мм1.8 м/с5 %
  • 24июля
    Среда
    +11°
    +27°
    Небольшая облачность
    ВремяПогодаТемператураВлажностьДавлениеВетер, м/сВероятность осадков
    00:00Ясно и безоблачно+14°C59 %700 мм2.8 м/с5 %
    03:00Практически безоблачно+12°C64 %699 мм3.0 м/с5 %
    06:00Небольшая облачность+11°C57 %699 мм3.4 м/с5 %
    09:00Небольшая облачность+15°C42 %701 мм3.3 м/с5 %
    12:00Облачно с прояснениями+23°C28 %702 мм2.4 м/с5 %
    15:00Небольшая облачность+26°C24 %701 мм0.7 м/с5 %
    18:00Облачно с прояснениями+23°C39 %701 мм0.2 м/с5 %
    21:00Практически безоблачно+15°C57 %700 мм2.1 м/с5 %
  • 25июля
    Четверг
    +11°
    +26°
    Ясно и безоблачно
    ВремяПогодаТемператураВлажностьДавлениеВетер, м/сВероятность осадков
    00:00Небольшая облачность+13°C71 %699 мм2.4 м/с5 %
    03:00Небольшая облачность+13°C72 %699 мм3.1 м/с5 %
    06:00Ясно и безоблачно+12°C77 %699 мм3.3 м/с5 %
    09:00Небольшая облачность+16°C61 %701 мм2.6 м/с5 %
    12:00Ясно и безоблачно+24°C35 %701 мм1.5 м/с5 %
    15:00Ясно и безоблачно+26°C29 %699 мм2.6 м/с5 %
    18:00Ясно и безоблачно+22°C45 %699 мм1.2 м/с5 %
    21:00Ясно и безоблачно+19°C50 %698 мм1.1 м/с5 %
  • 26июля
    Пятница
    +12°
    +26°
    Облачно с прояснениями
    ВремяПогодаТемператураВлажностьДавлениеВетер, м/сВероятность осадков
    00:00Ясно и безоблачно+14°C67 %697 мм2.2 м/с5 %
    03:00Ясно и безоблачно+12°C81 %697 мм2.5 м/с5 %
    06:00Ясно и безоблачно+13°C79 %697 мм2.8 м/с5 %
    09:00Практически безоблачно+17°C56 %699 мм2.3 м/с5 %
    12:00Облачно с прояснениями+24°C31 %700 мм0.8 м/с5 %
    15:00Облачно с прояснениями+26°C30 %698 мм0.4 м/с5 %
    18:00Облачно с прояснениями+23°C43 %698 мм0.8 м/с5 %
    21:00Облачно с прояснениями+17°C59 %698 мм1.1 м/с5 %
  • 27июля
    Суббота
    +12°
    +27°
    Небольшая облачность
    ВремяПогодаТемператураВлажностьДавлениеВетер, м/сВероятность осадков
    00:00Облачно с прояснениями+13°C78 %697 мм2.1 м/с5 %
    03:00Облачно с прояснениями+13°C72 %697 мм2.7 м/с5 %
    06:00Облачно с прояснениями+14°C67 %697 мм3.2 м/с5 %
    09:00Облачно с прояснениями+17°C54 %699 мм2.8 м/с5 %
    12:00Облачно с прояснениями+24°C30 %700 мм1.8 м/с5 %
    15:00Небольшая облачность+27°C28 %699 мм1.0 м/с5 %
    18:00Практически безоблачно+24°C45 %699 мм0.8 м/с5 %
    21:00Ясно и безоблачно+17°C55 %699 мм2.2 м/с5 %
Мы используем cookies
Соглашаюсь